Pagina principale
METAR-TAF:

METAR-TAF

Aeroporti :

Aeroporto di Salerno-Costa d'Amalfi

Salerno, Italia

latitudine: 40-37N, longitudine: 014-55E, altezza: 40 m

Osservazione

Il bollettino è stato emesso 1 ora e 13 minuti fa, alle 08:50 UTC
Vento 6 kt da est/sud-est
Temperature 15°C
Umidità 72%
Pressione 1012 hPa
Visibilità 10 km o più
Nuvoloso ad un'altezza di 3500 ft
Nuvoloso ad un'altezza di 5000 ft

METAR: LIRI 090850Z 12006KT 9999 BKN035 BKN050 15/10 Q1012

Ora: 11:03 (10:03 UTC)


TAF: mancante

Osservazioni e previsioni meteorologiche di più di 4000 aeroporti (messaggi METAR e TAF).

Le stazioni disponibili sono rappresentate dai dischi gialli e rossi sulla carta.

Puntare il mouse per vedere il nome della stazione.

Clicca sopra per visualizzare le osservazioni e previsioni meteorologiche.

Per cambiare la mappa : fare clic sui pulsanti verdi con una croce nera per ingrandire, il pulsante verde con un trattino per diminuire, o sulla freccia verde per le mappe adiacenti.


METAR-TAF: